Huajialing, China
Current Conditions -  °F | °C
As of 8:00 AM on Thursday 29 Jan 2015 (Local Time) from ZLLL Reporting Station
Clear Clear  
Wind Chill: -2°   Ceiling: Unl
Heat Index:   Visibility: 5mi
Dew Point: -2°   Wind: 4mph
Humidity: 67%   Direction: 340°NNW
Pressure: 30.24"   Gusts: NA
Location:  35.38°N, 105°E
Report Text: ZLLL 290000Z 34002MPS 8000 NSC M14/M19 Q1024 NOSIG
Loading
Personal Weather Stations






























Interactive Weather Map New forecast layout! Learn more

10-Day Weather Forecast

Advertisements
Track Severe Weather on mobile